Time;durP1;ratioP1;P1;durP2;ratioP2;P2;SDS_P1;SDS_P2;PMS_P1;PMS_P2;Temp;Humidity;BMP_temperature;BMP_pressure;BME280_temperature;BME280_humidity;BME280_pressure;Samples;Min_cycle;Max_cycle;Signal;HPM_P1;HPM_P2
2020/12/16 00:00:09;;;;;;;22.77;15.80;;;9.90;99.90;;;;;;5075345;28;20217;-78
2020/12/16 00:02:38;;;;;;;21.37;15.90;;;9.90;99.90;;;;;;5075163;28;20431;-80
2020/12/16 00:05:07;;;;;;;20.63;15.40;;;9.90;99.90;;;;;;5075224;28;20452;-80
2020/12/16 00:07:33;;;;;;;22.13;14.60;;;9.80;99.90;;;;;;5075101;28;20416;-80
2020/12/16 00:09:58;;;;;;;17.37;13.67;;;9.80;99.90;;;;;;5074770;28;20533;-80
2020/12/16 00:12:24;;;;;;;20.73;15.53;;;9.80;99.90;;;;;;5075076;28;20174;-77
2020/12/16 00:14:51;;;;;;;20.63;14.67;;;9.70;99.90;;;;;;5075245;28;20174;-77
2020/12/16 00:17:16;;;;;;;22.27;15.60;;;9.70;99.90;;;;;;5074737;28;20171;-77
2020/12/16 00:19:42;;;;;;;21.53;14.40;;;9.70;99.90;;;;;;5074825;28;20776;-77
2020/12/16 00:22:08;;;;;;;19.50;15.00;;;9.70;99.90;;;;;;5074996;28;20170;-78
2020/12/16 00:24:33;;;;;;;18.90;14.80;;;9.70;99.90;;;;;;5074804;28;20462;-77
2020/12/16 00:26:59;;;;;;;19.63;14.13;;;9.70;99.90;;;;;;5074715;28;20213;-77
2020/12/16 00:29:24;;;;;;;23.20;13.30;;;9.70;99.90;;;;;;5074617;28;20210;-80
2020/12/16 00:31:50;;;;;;;18.97;14.23;;;9.60;99.90;;;;;;5073834;28;20240;-79
2020/12/16 00:34:16;;;;;;;20.40;15.47;;;9.50;99.90;;;;;;5074474;28;20633;-80
2020/12/16 00:36:42;;;;;;;19.93;14.50;;;9.50;99.90;;;;;;5074504;28;20175;-82
2020/12/16 00:39:09;;;;;;;15.83;12.83;;;9.40;99.90;;;;;;5074497;28;20663;-78
2020/12/16 00:41:36;;;;;;;22.73;15.70;;;9.40;99.90;;;;;;5074326;28;20420;-80
2020/12/16 00:44:02;;;;;;;17.70;13.53;;;9.30;99.90;;;;;;5074470;28;20420;-80
2020/12/16 00:46:28;;;;;;;20.67;14.70;;;9.30;99.90;;;;;;5074245;28;20425;-76
2020/12/16 00:48:53;;;;;;;18.70;13.70;;;9.20;99.90;;;;;;5074136;28;20467;-76
2020/12/16 00:51:19;;;;;;;20.47;13.60;;;9.10;99.90;;;;;;5074252;28;20178;-77
2020/12/16 00:53:45;;;;;;;14.43;12.80;;;9.00;99.90;;;;;;5074063;28;20189;-77
2020/12/16 00:56:11;;;;;;;16.70;12.60;;;8.90;99.90;;;;;;5074236;28;20641;-77
2020/12/16 00:58:36;;;;;;;16.93;13.07;;;8.80;99.90;;;;;;5074043;28;20182;-76
2020/12/16 01:01:03;;;;;;;15.20;11.90;;;8.80;99.90;;;;;;5074093;28;20170;-77
2020/12/16 01:03:29;;;;;;;17.10;13.03;;;8.80;99.90;;;;;;5073927;28;20215;-76
2020/12/16 01:05:54;;;;;;;16.27;13.40;;;8.80;99.90;;;;;;5074068;28;20959;-83
2020/12/16 01:08:20;;;;;;;15.00;12.40;;;8.70;99.90;;;;;;5073707;28;20186;-79
2020/12/16 01:10:45;;;;;;;16.63;13.20;;;8.70;99.90;;;;;;5073853;28;20186;-80
2020/12/16 01:13:11;;;;;;;22.13;13.17;;;8.70;99.90;;;;;;5073884;28;20175;-82
2020/12/16 01:15:37;;;;;;;20.47;14.40;;;8.70;99.90;;;;;;5073764;28;20182;-81
2020/12/16 01:18:02;;;;;;;20.43;15.47;;;8.80;99.90;;;;;;5073876;28;20185;-81
2020/12/16 01:20:28;;;;;;;23.43;15.30;;;8.80;99.90;;;;;;5073695;28;20633;-81
2020/12/16 01:22:53;;;;;;;19.83;14.47;;;8.90;99.90;;;;;;5073573;28;20601;-82
2020/12/16 01:25:20;;;;;;;21.90;13.70;;;8.90;99.90;;;;;;5073668;28;20204;-82
2020/12/16 01:27:57;;;;;;;23.97;14.70;;;8.90;99.90;;;;;;5073562;28;20577;-82
2020/12/16 01:30:23;;;;;;;17.73;14.67;;;8.90;99.90;;;;;;5073540;28;20559;-82
2020/12/16 01:32:51;;;;;;;21.97;15.77;;;9.00;99.90;;;;;;5073560;28;20516;-82
2020/12/16 01:35:17;;;;;;;22.37;15.87;;;9.00;99.90;;;;;;5073546;28;20174;-82
2020/12/16 01:37:42;;;;;;;32.57;18.07;;;9.00;99.90;;;;;;5073465;28;21054;-82
2020/12/16 01:40:09;;;;;;;27.53;17.53;;;9.10;99.90;;;;;;5073421;28;20200;-82
2020/12/16 01:42:36;;;;;;;21.27;16.20;;;9.10;99.90;;;;;;5073269;28;20637;-78
2020/12/16 01:45:06;;;;;;;22.60;15.57;;;9.10;99.90;;;;;;5073266;28;20435;-78
2020/12/16 01:47:31;;;;;;;20.30;14.60;;;9.20;99.90;;;;;;5073286;28;20503;-78
2020/12/16 01:49:57;;;;;;;22.33;15.10;;;9.20;99.90;;;;;;5073292;28;20568;-78
2020/12/16 01:52:26;;;;;;;22.33;14.63;;;9.10;99.90;;;;;;5073312;28;20170;-77
2020/12/16 01:54:53;;;;;;;27.60;15.60;;;9.10;99.90;;;;;;5073327;28;20174;-78
2020/12/16 01:57:18;;;;;;;25.63;18.10;;;9.00;99.90;;;;;;5073150;28;20494;-78
2020/12/16 01:59:46;;;;;;;24.00;16.07;;;8.90;99.90;;;;;;5073099;28;20440;-77
2020/12/16 02:02:14;;;;;;;27.63;15.97;;;9.00;99.90;;;;;;5073170;28;20183;-77
2020/12/16 02:04:41;;;;;;;21.37;15.53;;;9.00;99.90;;;;;;5073120;28;20439;-82
2020/12/16 02:07:08;;;;;;;22.00;14.90;;;9.00;99.90;;;;;;5073063;28;20451;-82
2020/12/16 06:31:21;;;;;;;19.53;11.83;;;8.20;99.90;;;;;;5728510;22;20493;-75
2020/12/16 06:34:06;;;;;;;17.70;12.87;;;8.20;99.90;;;;;;5036994;28;20430;-76
2020/12/16 06:36:42;;;;;;;16.07;11.93;;;8.30;99.90;;;;;;5036893;28;20493;-75
2020/12/16 06:39:21;;;;;;;20.10;12.73;;;8.30;99.90;;;;;;5037025;28;20429;-76
2020/12/16 06:41:55;;;;;;;18.80;12.73;;;8.40;99.90;;;;;;5036951;28;20433;-76
2020/12/16 06:44:21;;;;;;;20.47;12.80;;;8.40;99.90;;;;;;5036832;28;20445;-76
2020/12/16 06:46:55;;;;;;;17.67;11.10;;;8.40;99.90;;;;;;5036734;28;20425;-76
2020/12/16 06:49:23;;;;;;;15.13;10.50;;;8.40;99.90;;;;;;5036686;28;20508;-76
2020/12/16 06:51:55;;;;;;;16.70;11.53;;;8.30;99.90;;;;;;5036628;28;20946;-77
2020/12/16 06:54:23;;;;;;;12.03;9.60;;;8.20;99.90;;;;;;5036667;28;20427;-77
2020/12/16 06:56:50;;;;;;;14.83;10.27;;;8.10;99.90;;;;;;5036510;28;20430;-77
2020/12/16 06:59:42;;;;;;;14.33;9.33;;;8.00;99.90;;;;;;5036439;28;20517;-77
2020/12/16 07:02:14;;;;;;;16.13;11.20;;;7.90;99.90;;;;;;5036842;28;20783;-77
2020/12/16 07:04:40;;;;;;;19.80;12.20;;;7.80;99.90;;;;;;5036464;28;20476;-77
2020/12/16 07:07:05;;;;;;;22.17;13.10;;;7.80;99.90;;;;;;5036312;28;20417;-76
2020/12/16 07:09:32;;;;;;;17.60;12.40;;;7.80;99.90;;;;;;5036237;28;20212;-76
2020/12/16 07:11:58;;;;;;;14.43;11.70;;;7.80;99.90;;;;;;5036378;28;20186;-77
2020/12/16 07:14:34;;;;;;;17.33;11.90;;;7.90;99.90;;;;;;5036096;28;20430;-77
2020/12/16 07:17:08;;;;;;;17.60;11.80;;;7.90;99.90;;;;;;5036377;28;20259;-76
2020/12/16 07:19:34;;;;;;;18.83;13.40;;;7.90;99.90;;;;;;5064634;22;20648;-76
2020/12/16 07:22:21;;;;;;;16.50;11.33;;;8.00;99.90;;;;;;5036237;28;20488;-77
2020/12/16 07:24:51;;;;;;;18.03;12.43;;;8.00;99.90;;;;;;5036051;28;20433;-76
2020/12/16 07:27:20;;;;;;;23.13;12.70;;;8.00;99.90;;;;;;5036084;28;20437;-76
2020/12/16 07:29:57;;;;;;;18.53;12.00;;;8.00;99.90;;;;;;5035494;28;20454;-75
2020/12/16 07:32:25;;;;;;;17.73;12.00;;;8.00;99.90;;;;;;5032528;28;20430;-76
2020/12/16 07:34:53;;;;;;;17.70;12.40;;;8.10;99.90;;;;;;5017914;28;20445;-77
2020/12/16 07:37:30;;;;;;;16.07;12.43;;;8.10;99.90;;;;;;5023111;28;20439;-79
2020/12/16 07:40:00;;;;;;;17.20;12.40;;;8.10;99.90;;;;;;5020209;28;20497;-75
2020/12/16 07:42:30;;;;;;;20.50;12.77;;;8.20;99.90;;;;;;5028891;28;20795;-76
2020/12/16 07:48:18;;;;;;;17.33;10.73;;;8.30;99.90;;;;;;5035764;28;20418;-76
2020/12/16 07:54:05;;;;;;;15.73;11.07;;;8.40;99.90;;;;;;5035777;28;20175;-75
2020/12/16 07:56:31;;;;;;;14.80;10.70;;;8.40;99.90;;;;;;5035586;28;20426;-89
2020/12/16 07:59:07;;;;;;;25.03;13.97;;;8.40;99.90;;;;;;5035824;28;20179;-76
2020/12/16 08:01:33;;;;;;;16.63;11.57;;;8.40;99.90;;;;;;5035420;28;20190;-77
2020/12/16 08:03:58;;;;;;;18.97;12.20;;;8.40;99.90;;;;;;5035571;28;20422;-77
2020/12/16 08:06:24;;;;;;;16.50;10.77;;;8.50;99.90;;;;;;5035400;28;20249;-77
2020/12/16 08:08:53;;;;;;;20.97;12.43;;;8.50;99.90;;;;;;5035351;28;20282;-77
2020/12/16 08:11:21;;;;;;;17.00;11.20;;;8.50;99.90;;;;;;5035503;28;20426;-76
2020/12/16 08:13:51;;;;;;;19.30;11.90;;;8.50;99.90;;;;;;5035225;28;20419;-77
2020/12/16 08:16:16;;;;;;;14.20;10.13;;;8.60;99.90;;;;;;5035337;28;20505;-77
2020/12/16 08:18:44;;;;;;;22.10;13.17;;;8.60;99.90;;;;;;5035429;28;20422;-76
2020/12/16 08:21:17;;;;;;;16.63;11.40;;;8.60;99.90;;;;;;5035126;28;20231;-76
2020/12/16 08:23:43;;;;;;;20.50;12.43;;;8.80;99.90;;;;;;5035512;28;20460;-76
2020/12/16 08:26:08;;;;;;;20.43;11.17;;;8.90;99.90;;;;;;5035361;28;20428;-76
2020/12/16 08:28:34;;;;;;;15.50;11.10;;;8.90;99.90;;;;;;5035266;28;20186;-77
2020/12/16 08:31:02;;;;;;;16.93;11.60;;;8.90;99.90;;;;;;5034995;28;20178;-76
2020/12/16 08:33:29;;;;;;;19.90;11.37;;;8.80;99.90;;;;;;5035237;28;20274;-76
2020/12/16 08:36:04;;;;;;;17.27;11.57;;;8.80;99.90;;;;;;5035212;28;20430;-76
2020/12/16 08:38:29;;;;;;;19.30;12.80;;;8.80;99.90;;;;;;5035080;28;20416;-76
2020/12/16 08:40:56;;;;;;;19.33;12.77;;;8.90;99.90;;;;;;5034990;28;20533;-77
2020/12/16 08:43:24;;;;;;;21.73;12.20;;;9.00;99.90;;;;;;5034977;28;20191;-77
2020/12/16 08:46:07;;;;;;;18.13;12.73;;;9.00;99.90;;;;;;5034985;28;20445;-77
2020/12/16 08:48:39;;;;;;;14.10;11.93;;;9.10;99.90;;;;;;5034827;28;20417;-76
2020/12/16 08:51:07;;;;;;;18.53;12.00;;;9.30;99.90;;;;;;5034823;28;20486;-74
2020/12/16 08:54:41;;;;;;;16.97;11.97;;;9.40;99.90;;;;;;5089470;27;20571;-75
2020/12/16 08:57:07;;;;;;;15.20;10.90;;;9.50;99.90;;;;;;5087326;28;20426;-74
2020/12/16 08:59:33;;;;;;;21.37;11.73;;;9.50;99.90;;;;;;5089054;28;20424;-76
2020/12/16 09:02:02;;;;;;;18.43;10.83;;;9.60;99.90;;;;;;5089397;28;20173;-76
2020/12/16 09:04:28;;;;;;;19.50;11.63;;;9.70;99.90;;;;;;5088291;28;20432;-76
2020/12/16 09:07:12;;;;;;;13.20;10.33;;;9.80;99.90;;;;;;5089398;28;20530;-75
2020/12/16 09:09:38;;;;;;;13.80;11.63;;;9.80;99.90;;;;;;5089453;28;20432;-75
2020/12/16 09:12:11;;;;;;;19.10;13.10;;;10.00;99.90;;;;;;5089706;28;20431;-77
2020/12/16 09:14:36;;;;;;;15.03;11.60;;;10.00;99.90;;;;;;5089570;28;20444;-75
2020/12/16 09:17:09;;;;;;;17.80;12.70;;;10.10;99.90;;;;;;5088663;28;20496;-75
2020/12/16 09:19:35;;;;;;;15.80;11.90;;;10.10;99.90;;;;;;5089004;28;20281;-75
2020/12/16 09:22:01;;;;;;;18.47;13.00;;;10.10;99.90;;;;;;5089273;28;20511;-74
2020/12/16 09:24:27;;;;;;;16.30;11.90;;;10.20;99.90;;;;;;5089150;28;20519;-78
2020/12/16 09:26:57;;;;;;;14.73;11.87;;;10.30;99.90;;;;;;5088805;28;20861;-79
2020/12/16 09:29:28;;;;;;;17.03;12.43;;;10.40;99.90;;;;;;5088690;28;20493;-79
2020/12/16 09:32:09;;;;;;;14.23;10.60;;;10.50;99.90;;;;;;5088670;28;20871;-78
2020/12/16 09:34:44;;;;;;;13.60;10.77;;;10.50;99.90;;;;;;5087135;28;20511;-79
2020/12/16 09:37:19;;;;;;;14.30;10.90;;;10.50;99.90;;;;;;5086667;28;20780;-77
2020/12/16 09:39:47;;;;;;;14.00;10.73;;;10.60;99.90;;;;;;5088193;28;20518;-78
2020/12/16 09:42:15;;;;;;;16.63;11.23;;;10.60;99.90;;;;;;5087636;28;20942;-78
2020/12/16 09:44:42;;;;;;;13.00;10.33;;;10.60;99.90;;;;;;5088557;28;20439;-78
2020/12/16 09:47:22;;;;;;;14.83;10.50;;;10.70;99.90;;;;;;5088955;28;20510;-78
2020/12/16 09:49:59;;;;;;;20.37;11.50;;;10.80;99.90;;;;;;5086122;28;20435;-79
2020/12/16 09:52:30;;;;;;;15.83;10.90;;;10.70;99.90;;;;;;5085420;28;20427;-80
2020/12/16 09:54:57;;;;;;;12.67;9.40;;;10.80;99.90;;;;;;5089044;28;20439;-80
2020/12/16 09:57:23;;;;;;;13.97;9.57;;;10.80;99.90;;;;;;5088487;28;20428;-79
2020/12/16 09:59:49;;;;;;;12.80;8.43;;;10.80;99.90;;;;;;5088791;28;20438;-80
2020/12/16 10:02:16;;;;;;;7.97;6.43;;;10.80;99.90;;;;;;5088413;28;20424;-80
2020/12/16 10:04:42;;;;;;;9.23;6.60;;;10.80;99.90;;;;;;5082194;28;20444;-80
2020/12/16 10:07:07;;;;;;;12.50;7.30;;;10.90;99.90;;;;;;5075227;28;20915;-78
2020/12/16 10:09:35;;;;;;;7.60;6.50;;;11.10;99.90;;;;;;5075592;28;20182;-78
2020/12/16 10:12:03;;;;;;;11.60;6.33;;;11.30;99.90;;;;;;5075220;28;20475;-78
2020/12/16 10:14:28;;;;;;;6.50;5.90;;;11.20;99.90;;;;;;5075212;28;20464;-78
2020/12/16 10:16:54;;;;;;;9.03;6.37;;;11.30;99.90;;;;;;5076137;28;20486;-79
2020/12/16 10:19:20;;;;;;;8.10;5.83;;;11.30;99.90;;;;;;5074751;28;20185;-79
2020/12/16 10:21:47;;;;;;;8.80;6.40;;;11.50;99.90;;;;;;5074329;28;20184;-78
2020/12/16 10:24:14;;;;;;;10.13;6.37;;;11.50;99.90;;;;;;5074575;28;20898;-79
2020/12/16 10:26:39;;;;;;;7.93;6.20;;;11.40;99.90;;;;;;5073932;28;20439;-78
2020/12/16 10:29:05;;;;;;;7.87;6.10;;;11.50;99.90;;;;;;5073969;28;20432;-77
2020/12/16 10:31:30;;;;;;;7.00;6.10;;;11.60;99.90;;;;;;5073845;28;20324;-78
2020/12/16 10:33:56;;;;;;;8.17;7.20;;;11.60;99.90;;;;;;5073624;28;20213;-79
2020/12/16 10:36:22;;;;;;;6.97;6.27;;;11.80;99.90;;;;;;5073893;28;20170;-81
2020/12/16 10:38:47;;;;;;;6.37;5.70;;;11.90;99.90;;;;;;5074172;28;20182;-77
2020/12/16 10:41:13;;;;;;;6.63;5.57;;;12.00;99.90;;;;;;5074092;28;20653;-79
2020/12/16 10:43:39;;;;;;;7.77;5.20;;;12.00;99.90;;;;;;5073934;28;20182;-80
2020/12/16 10:46:10;;;;;;;6.47;5.60;;;12.20;99.90;;;;;;5071459;28;20239;-83
2020/12/16 10:48:36;;;;;;;8.93;6.10;;;12.30;99.90;;;;;;5074817;28;20186;-79
2020/12/16 10:51:02;;;;;;;7.33;5.67;;;12.10;99.90;;;;;;5074157;28;20459;-80
2020/12/16 10:53:28;;;;;;;7.30;6.17;;;12.20;99.90;;;;;;5070906;28;20229;-79
2020/12/16 10:55:55;;;;;;;8.07;7.03;;;12.40;99.90;;;;;;5073815;28;20919;-80
2020/12/16 10:58:21;;;;;;;7.27;5.60;;;12.50;99.90;;;;;;5074036;28;20175;-80
2020/12/16 11:00:47;;;;;;;6.83;5.97;;;12.50;99.90;;;;;;5074665;28;20776;-79
2020/12/16 11:03:12;;;;;;;6.93;5.80;;;12.60;99.90;;;;;;5073978;28;20183;-79
2020/12/16 11:05:38;;;;;;;10.10;8.00;;;12.70;99.90;;;;;;5073033;28;20577;-75
2020/12/16 11:08:03;;;;;;;7.37;5.40;;;12.60;99.90;;;;;;5073870;28;20637;-76
2020/12/16 11:10:29;;;;;;;8.43;5.70;;;12.70;99.90;;;;;;5073715;28;20223;-74
2020/12/16 11:12:54;;;;;;;7.47;6.00;;;12.70;99.90;;;;;;5074057;28;20210;-80
2020/12/16 11:15:20;;;;;;;7.00;5.23;;;12.80;99.90;;;;;;5073889;28;20182;-78
2020/12/16 11:17:45;;;;;;;5.73;5.13;;;12.80;99.90;;;;;;5072796;28;20185;-82
2020/12/16 11:20:11;;;;;;;9.53;5.93;;;12.90;99.90;;;;;;5073582;28;20180;-77
2020/12/16 11:22:37;;;;;;;8.40;6.90;;;13.00;99.90;;;;;;5073711;28;20189;-78
2020/12/16 11:25:05;;;;;;;7.97;5.10;;;13.20;99.90;;;;;;5074027;28;20639;-77
2020/12/16 11:27:30;;;;;;;8.23;5.60;;;13.30;99.90;;;;;;5074241;28;20433;-79
2020/12/16 11:29:56;;;;;;;5.23;4.40;;;13.30;99.90;;;;;;5074148;28;20490;-79
2020/12/16 11:32:22;;;;;;;5.47;4.83;;;13.40;99.90;;;;;;5073892;28;20236;-78
2020/12/16 11:34:47;;;;;;;6.97;4.37;;;13.40;99.90;;;;;;5074058;28;20252;-79
2020/12/16 11:37:14;;;;;;;5.27;4.77;;;13.60;99.90;;;;;;5073383;28;20197;-78
2020/12/16 11:39:40;;;;;;;7.17;4.50;;;13.70;99.90;;;;;;5073784;28;20194;-80
2020/12/16 11:42:07;;;;;;;12.70;8.10;;;13.90;99.90;;;;;;5073315;28;20429;-79
2020/12/16 11:44:33;;;;;;;5.77;4.63;;;14.10;99.90;;;;;;5073464;28;20432;-77
2020/12/16 11:46:58;;;;;;;10.70;6.77;;;14.40;99.90;;;;;;5073304;28;20756;-79
2020/12/16 11:49:25;;;;;;;3.87;2.90;;;14.70;99.90;;;;;;5073640;28;20459;-79
2020/12/16 11:51:52;;;;;;;5.07;3.97;;;15.00;99.90;;;;;;5073575;28;20644;-79
2020/12/16 11:54:18;;;;;;;5.00;4.27;;;15.30;99.90;;;;;;5073147;28;20477;-79
2020/12/16 11:56:44;;;;;;;5.10;3.13;;;15.60;99.90;;;;;;5074092;28;20420;-79
2020/12/16 11:59:10;;;;;;;3.37;3.07;;;15.80;99.90;;;;;;5073989;28;20443;-79
2020/12/16 12:01:35;;;;;;;3.73;2.90;;;15.90;99.90;;;;;;5072163;28;20424;-79
2020/12/16 12:04:01;;;;;;;4.57;3.70;;;16.00;99.90;;;;;;5073531;28;20178;-80
2020/12/16 12:06:28;;;;;;;3.30;2.83;;;16.10;99.90;;;;;;5072603;28;20634;-80
2020/12/16 12:08:54;;;;;;;5.23;3.67;;;16.20;99.90;;;;;;5072641;28;20174;-79
2020/12/16 12:11:19;;;;;;;3.10;2.80;;;16.30;99.90;;;;;;5072915;28;20436;-80
2020/12/16 12:13:47;;;;;;;3.50;2.70;;;16.30;99.90;;;;;;5073220;28;20478;-79
2020/12/16 12:16:15;;;;;;;3.60;2.80;;;16.10;99.90;;;;;;5070225;28;20170;-79
2020/12/16 12:18:42;;;;;;;3.07;2.70;;;16.00;99.90;;;;;;5072711;28;20494;-79
2020/12/16 12:21:09;;;;;;;4.70;4.20;;;15.90;99.90;;;;;;5073023;28;20785;-79
2020/12/16 12:23:35;;;;;;;5.93;4.60;;;15.90;99.90;;;;;;5072745;28;20524;-78
2020/12/16 12:26:02;;;;;;;6.00;3.73;;;15.80;99.90;;;;;;5072760;28;20798;-78
2020/12/16 12:28:28;;;;;;;2.83;2.57;;;15.60;99.90;;;;;;5072330;28;20440;-78
2020/12/16 12:30:53;;;;;;;5.53;3.43;;;15.50;99.90;;;;;;5073012;28;20962;-79
2020/12/16 12:33:19;;;;;;;3.73;2.67;;;15.30;99.90;;;;;;5072274;28;20198;-79
2020/12/16 12:35:46;;;;;;;3.90;3.23;;;15.10;99.90;;;;;;5072572;28;20621;-79
2020/12/16 12:38:12;;;;;;;3.50;3.00;;;15.00;99.90;;;;;;5072400;28;20174;-79
2020/12/16 12:40:37;;;;;;;4.63;3.10;;;14.90;99.90;;;;;;5072021;28;20435;-76
2020/12/16 12:43:03;;;;;;;4.33;3.27;;;14.80;99.90;;;;;;5072182;28;20433;-79
2020/12/16 12:45:28;;;;;;;3.37;3.07;;;14.80;99.90;;;;;;5072261;28;20268;-79
2020/12/16 12:47:54;;;;;;;3.50;2.23;;;14.80;99.90;;;;;;5072607;28;20205;-79
2020/12/16 12:50:19;;;;;;;5.53;2.50;;;14.80;99.90;;;;;;5072377;28;20178;-78
2020/12/16 12:52:46;;;;;;;3.03;2.00;;;14.60;99.90;;;;;;5071137;28;20229;-78
2020/12/16 12:55:12;;;;;;;2.17;1.97;;;14.50;99.90;;;;;;5071852;28;20175;-80
2020/12/16 12:57:41;;;;;;;2.00;1.80;;;14.50;99.90;;;;;;5071578;28;20425;-79
2020/12/16 13:00:09;;;;;;;2.37;1.70;;;14.30;99.90;;;;;;5071132;28;20633;-77
2020/12/16 13:02:34;;;;;;;5.90;2.40;;;14.30;99.90;;;;;;5070944;28;20425;-77
2020/12/16 13:05:00;;;;;;;2.40;2.20;;;14.10;99.90;;;;;;5071143;28;20482;-79
2020/12/16 13:07:26;;;;;;;2.67;2.10;;;14.10;99.90;;;;;;5071364;28;20655;-80
2020/12/16 13:09:51;;;;;;;2.20;1.97;;;14.00;99.90;;;;;;5072176;28;20204;-80
2020/12/16 13:12:17;;;;;;;2.77;2.57;;;14.00;99.90;;;;;;5071299;28;20536;-80
2020/12/16 13:14:42;;;;;;;2.33;2.10;;;13.90;99.90;;;;;;5071578;28;20214;-80
2020/12/16 13:17:08;;;;;;;5.00;2.30;;;13.80;99.90;;;;;;5071389;28;20171;-79
2020/12/16 13:19:33;;;;;;;3.43;2.63;;;13.90;99.90;;;;;;5069583;28;20243;-79
2020/12/16 13:21:59;;;;;;;3.27;2.63;;;13.80;99.90;;;;;;5069451;28;20201;-80
2020/12/16 13:24:26;;;;;;;5.77;2.80;;;13.70;99.90;;;;;;5069760;28;20174;-78
2020/12/16 13:26:52;;;;;;;3.13;2.20;;;13.60;99.90;;;;;;5071119;28;20186;-76
2020/12/16 13:29:18;;;;;;;2.60;2.33;;;13.60;99.90;;;;;;5071571;28;20433;-79
2020/12/16 13:31:52;;;;;;;4.00;2.70;;;13.60;99.90;;;;;;5071661;28;20912;-79
2020/12/16 13:34:18;;;;;;;2.67;2.17;;;13.80;99.90;;;;;;5071726;28;20476;-79
2020/12/16 13:36:46;;;;;;;5.27;3.03;;;13.70;99.90;;;;;;5071963;28;20511;-79
2020/12/16 13:39:12;;;;;;;3.33;2.40;;;13.60;99.90;;;;;;5071975;28;20428;-78
2020/12/16 13:41:38;;;;;;;3.27;2.57;;;13.60;99.90;;;;;;5075619;28;20447;-78
2020/12/16 13:44:03;;;;;;;3.53;2.90;;;13.50;99.90;;;;;;5075204;28;20432;-81
2020/12/16 13:46:29;;;;;;;3.30;3.00;;;13.50;99.90;;;;;;5074829;28;20175;-79
2020/12/16 13:48:55;;;;;;;6.30;2.70;;;13.50;99.90;;;;;;5075003;28;20264;-78
2020/12/16 13:51:23;;;;;;;3.70;2.80;;;13.40;99.90;;;;;;5074719;28;20262;-80
2020/12/16 13:53:49;;;;;;;2.73;2.20;;;13.50;99.90;;;;;;5074689;28;20620;-82
2020/12/16 13:56:15;;;;;;;2.53;2.33;;;13.50;99.90;;;;;;5074588;28;20439;-80
2020/12/16 13:58:41;;;;;;;2.73;2.23;;;13.50;99.90;;;;;;5074766;28;20459;-83
2020/12/16 14:01:07;;;;;;;3.40;3.00;;;13.50;99.90;;;;;;5075001;28;20174;-85
2020/12/16 14:03:33;;;;;;;2.57;2.37;;;13.40;99.90;;;;;;5075330;28;20178;-77
2020/12/16 14:05:58;;;;;;;2.50;2.10;;;13.30;99.90;;;;;;5074947;28;20912;-84
2020/12/16 14:08:24;;;;;;;2.67;2.30;;;13.30;99.90;;;;;;5074645;28;20644;-77
2020/12/16 14:10:49;;;;;;;4.43;2.63;;;13.20;99.90;;;;;;5075130;28;20189;-82
2020/12/16 14:13:15;;;;;;;5.90;3.93;;;13.20;99.90;;;;;;5074999;28;20696;-81
2020/12/16 14:15:40;;;;;;;6.00;4.23;;;13.20;99.90;;;;;;5074028;28;20534;-79
2020/12/16 14:18:06;;;;;;;4.43;2.83;;;13.20;99.90;;;;;;5074432;28;20561;-78
2020/12/16 14:20:31;;;;;;;3.37;1.93;;;13.20;99.90;;;;;;5074771;28;20661;-79
2020/12/16 14:22:57;;;;;;;6.90;4.10;;;13.20;99.90;;;;;;5071797;28;20175;-81
2020/12/16 14:25:22;;;;;;;6.90;3.77;;;13.30;99.90;;;;;;5074326;28;20171;-79
2020/12/16 14:27:48;;;;;;;7.50;5.33;;;13.10;99.90;;;;;;5074306;28;20174;-78
2020/12/16 14:30:14;;;;;;;3.30;3.00;;;13.10;99.90;;;;;;5073963;28;20167;-79
2020/12/16 14:32:39;;;;;;;3.13;2.40;;;13.20;99.90;;;;;;5074102;28;20193;-83
2020/12/16 14:35:05;;;;;;;3.20;2.90;;;13.30;99.90;;;;;;5074888;28;20183;-81
2020/12/16 14:37:32;;;;;;;2.97;2.40;;;13.30;99.90;;;;;;5074198;28;20706;-78
2020/12/16 14:39:58;;;;;;;3.50;3.20;;;13.20;99.90;;;;;;5074318;28;20530;-83
2020/12/16 14:42:24;;;;;;;2.97;2.63;;;13.20;99.90;;;;;;5074356;28;20838;-78
2020/12/16 14:44:51;;;;;;;4.20;3.43;;;13.10;99.90;;;;;;5075044;28;20440;-89
2020/12/16 14:47:17;;;;;;;3.97;3.43;;;13.20;99.90;;;;;;5074696;28;20180;-85
2020/12/16 14:49:43;;;;;;;2.60;2.30;;;13.20;99.90;;;;;;5075546;28;20520;-86
2020/12/16 14:52:08;;;;;;;3.90;2.33;;;13.20;99.90;;;;;;5075892;28;20288;-86
2020/12/16 14:54:34;;;;;;;3.13;2.93;;;13.10;99.90;;;;;;5075059;28;20866;-86
2020/12/16 14:57:00;;;;;;;4.50;2.87;;;13.00;99.90;;;;;;5075302;28;20181;-87
2020/12/16 14:59:25;;;;;;;3.60;2.47;;;13.00;99.90;;;;;;5076292;28;20209;-85
2020/12/16 15:01:51;;;;;;;2.93;2.30;;;13.00;99.90;;;;;;5075750;28;20200;-86
2020/12/16 15:04:18;;;;;;;2.80;2.50;;;12.90;99.90;;;;;;5076122;28;20625;-86
2020/12/16 15:06:44;;;;;;;4.33;2.13;;;13.00;99.90;;;;;;5078160;28;20425;-85
2020/12/16 15:09:10;;;;;;;2.80;2.40;;;12.90;99.90;;;;;;5088269;28;20429;-86
2020/12/16 15:11:37;;;;;;;3.20;2.90;;;12.80;99.90;;;;;;5097447;28;20432;-87
2020/12/16 15:14:03;;;;;;;3.80;2.67;;;12.80;99.90;;;;;;5096058;28;20194;-86
2020/12/16 15:16:30;;;;;;;4.93;3.17;;;12.90;99.90;;;;;;5097575;28;20421;-85
2020/12/16 15:18:57;;;;;;;3.90;2.97;;;12.80;99.90;;;;;;5096942;28;20558;-86
2020/12/16 15:21:23;;;;;;;3.03;2.50;;;12.80;99.90;;;;;;5079069;28;20492;-83
2020/12/16 15:23:49;;;;;;;5.57;3.50;;;12.80;99.90;;;;;;5076203;28;20432;-83
2020/12/16 15:26:15;;;;;;;5.32;4.35;;;12.80;99.90;;;;;;5079552;28;20527;-86
2020/12/16 15:28:42;;;;;;;5.63;5.23;;;12.70;99.90;;;;;;5073268;28;21003;-89
2020/12/16 15:31:08;;;;;;;3.20;2.90;;;12.60;99.90;;;;;;5073588;28;20167;-90
2020/12/16 15:33:34;;;;;;;3.67;3.37;;;12.60;99.90;;;;;;5073206;28;20467;-84
2020/12/16 15:36:00;;;;;;;3.83;2.87;;;12.60;99.90;;;;;;5072379;28;20811;-79
2020/12/16 15:38:26;;;;;;;3.23;2.93;;;12.50;99.90;;;;;;5070908;28;20436;-78
2020/12/16 15:40:51;;;;;;;4.20;3.07;;;12.50;99.90;;;;;;5071561;28;20413;-78
2020/12/16 15:43:17;;;;;;;3.73;3.00;;;12.50;99.90;;;;;;5071404;28;20836;-80
2020/12/16 15:45:43;;;;;;;3.00;2.73;;;12.50;99.90;;;;;;5071243;28;20167;-79
2020/12/16 15:48:08;;;;;;;5.13;3.10;;;12.50;99.90;;;;;;5071221;28;20663;-80
2020/12/16 15:50:34;;;;;;;3.37;2.83;;;12.60;99.90;;;;;;5071514;28;20232;-81
2020/12/16 15:53:00;;;;;;;3.80;3.30;;;12.60;99.90;;;;;;5072000;28;20328;-78
2020/12/16 15:55:25;;;;;;;7.33;3.53;;;12.60;99.90;;;;;;5071380;28;20189;-79
2020/12/16 15:57:51;;;;;;;3.27;2.77;;;12.60;99.90;;;;;;5070765;28;20177;-79
2020/12/16 16:00:19;;;;;;;4.30;3.40;;;12.50;99.90;;;;;;5071279;28;20175;-80
2020/12/16 16:02:44;;;;;;;3.40;3.10;;;12.50;99.90;;;;;;5070374;28;20175;-82
2020/12/16 16:05:10;;;;;;;3.53;3.10;;;12.50;99.90;;;;;;5072971;28;20452;-81
2020/12/16 16:07:35;;;;;;;8.50;3.70;;;12.50;99.90;;;;;;5072570;28;20178;-80
2020/12/16 16:10:01;;;;;;;3.40;3.10;;;12.50;99.90;;;;;;5070578;28;20170;-80
2020/12/16 16:12:26;;;;;;;3.50;3.20;;;12.50;99.90;;;;;;5069910;28;20198;-80
2020/12/16 16:14:52;;;;;;;3.63;3.33;;;12.40;99.90;;;;;;5070162;28;20171;-80
2020/12/16 16:17:18;;;;;;;3.80;3.40;;;12.40;99.90;;;;;;5071093;28;20181;-80
2020/12/16 16:19:43;;;;;;;4.03;3.63;;;12.30;99.90;;;;;;5071680;28;20235;-81
2020/12/16 16:22:09;;;;;;;4.20;3.57;;;12.30;99.90;;;;;;5071087;28;20181;-80
2020/12/16 16:24:35;;;;;;;5.17;3.60;;;12.20;99.90;;;;;;5070521;28;20175;-80
2020/12/16 16:27:04;;;;;;;7.30;3.70;;;12.30;99.90;;;;;;5071168;28;20197;-79
2020/12/16 16:29:32;;;;;;;4.90;3.80;;;12.30;99.90;;;;;;5070622;28;20537;-79
2020/12/16 16:31:58;;;;;;;5.03;3.43;;;12.40;99.90;;;;;;5068965;28;20439;-80
2020/12/16 16:34:24;;;;;;;4.30;3.90;;;12.50;99.90;;;;;;5071179;28;20476;-80
2020/12/16 16:36:50;;;;;;;4.47;3.60;;;12.40;99.90;;;;;;5071650;28;20182;-80
2020/12/16 16:39:16;;;;;;;4.23;3.40;;;12.40;99.90;;;;;;5071493;28;21015;-81
2020/12/16 16:41:46;;;;;;;7.90;5.00;;;12.20;99.90;;;;;;5071018;28;20209;-79
2020/12/16 16:44:11;;;;;;;4.97;4.47;;;12.20;99.90;;;;;;5071820;28;20490;-80
2020/12/16 16:46:37;;;;;;;9.97;4.40;;;12.20;99.90;;;;;;5071265;28;20433;-80
2020/12/16 16:49:03;;;;;;;7.77;5.80;;;12.20;99.90;;;;;;5070946;28;20196;-80
2020/12/16 16:51:28;;;;;;;6.50;4.27;;;12.20;99.90;;;;;;5071483;28;20182;-79
2020/12/16 16:53:54;;;;;;;4.70;4.20;;;12.10;99.90;;;;;;5070051;28;20222;-79
2020/12/16 16:56:20;;;;;;;4.87;4.20;;;12.20;99.90;;;;;;5071378;28;20186;-78
2020/12/16 16:58:45;;;;;;;6.67;5.03;;;12.10;99.90;;;;;;5071114;28;20432;-79
2020/12/16 17:01:11;;;;;;;6.90;5.23;;;12.00;99.90;;;;;;5070893;28;20185;-79
2020/12/16 17:03:36;;;;;;;5.90;4.90;;;12.00;99.90;;;;;;5069982;28;20178;-79
2020/12/16 17:06:02;;;;;;;5.13;4.63;;;12.00;99.90;;;;;;5070086;28;20182;-79
2020/12/16 17:08:28;;;;;;;10.83;4.87;;;11.90;99.90;;;;;;5070368;28;20621;-79